Tangail, Bangladesh
Current Conditions -  °F | °C
As of 8:20 PM on Thursday 27 Nov 2014 (Local Time) from VGHS Reporting Station
Haze Haze  
Wind Chill: 22°   Ceiling: Unl
Heat Index: 22°   Visibility: 2.5mi
Dew Point: 16°   Wind: 0mph
Humidity: 69%   Direction: NA
Pressure: 29.83"   Gusts: NA
Location:  24.25°N, 89.92°E
Report Text: VGHS 271420Z 00000KT 4000 HZ NSC 22/16 Q1010 NOSIG
Loading
Personal Weather Stations






























Interactive Weather Map New forecast layout! Learn more

10-Day Weather Forecast

Advertisements
Track Severe Weather on mobile